sensor_id;sensor_type;location;lat;lon;timestamp;pressure;altitude;pressure_sealevel;temperature;humidity
21760;BME280;11041;50.854;20.580;2023-03-01T00:01:30;99986.25;;;-6.35;84.84
21760;BME280;11041;50.854;20.580;2023-03-01T00:03:57;100013.75;;;-6.18;85.30
21760;BME280;11041;50.854;20.580;2023-03-01T00:06:26;100027.41;;;-6.13;84.93
21760;BME280;11041;50.854;20.580;2023-03-01T00:08:53;100011.13;;;-6.27;84.54
21760;BME280;11041;50.854;20.580;2023-03-01T00:11:25;100005.13;;;-6.29;85.28
21760;BME280;11041;50.854;20.580;2023-03-01T00:13:55;99987.28;;;-6.36;84.51
21760;BME280;11041;50.854;20.580;2023-03-01T00:16:30;99997.81;;;-6.35;84.49
21760;BME280;11041;50.854;20.580;2023-03-01T00:18:57;99983.09;;;-6.39;85.01
21760;BME280;11041;50.854;20.580;2023-03-01T00:21:25;100009.06;;;-6.16;84.93
21760;BME280;11041;50.854;20.580;2023-03-01T00:23:53;99991.88;;;-6.22;84.46
21760;BME280;11041;50.854;20.580;2023-03-01T00:26:23;100006.16;;;-6.07;84.32
21760;BME280;11041;50.854;20.580;2023-03-01T00:28:51;99992.47;;;-6.12;83.62
21760;BME280;11041;50.854;20.580;2023-03-01T00:31:22;99994.47;;;-6.06;83.38
21760;BME280;11041;50.854;20.580;2023-03-01T00:33:52;99976.66;;;-6.22;83.31
21760;BME280;11041;50.854;20.580;2023-03-01T00:36:27;99981.16;;;-6.22;83.33
21760;BME280;11041;50.854;20.580;2023-03-01T00:38:54;99967.81;;;-6.30;83.37
21760;BME280;11041;50.854;20.580;2023-03-01T00:41:23;99974.13;;;-6.23;83.26
21760;BME280;11041;50.854;20.580;2023-03-01T00:43:50;99939.34;;;-6.46;82.92
21760;BME280;11041;50.854;20.580;2023-03-01T00:46:20;99965.50;;;-6.33;83.25
21760;BME280;11041;50.854;20.580;2023-03-01T00:48:47;99949.38;;;-6.48;83.88
21760;BME280;11041;50.854;20.580;2023-03-01T00:51:20;99953.38;;;-6.44;83.78
21760;BME280;11041;50.854;20.580;2023-03-01T00:53:50;99972.00;;;-6.28;83.88
21760;BME280;11041;50.854;20.580;2023-03-01T00:56:17;99957.94;;;-6.53;83.51
21760;BME280;11041;50.854;20.580;2023-03-01T00:58:44;99981.94;;;-6.45;83.78
21760;BME280;11041;50.854;20.580;2023-03-01T01:01:16;99993.19;;;-6.49;83.58
21760;BME280;11041;50.854;20.580;2023-03-01T01:03:51;99969.88;;;-6.72;83.16
21760;BME280;11041;50.854;20.580;2023-03-01T01:08:51;99943.84;;;-6.78;84.44
21760;BME280;11041;50.854;20.580;2023-03-01T01:11:20;99989.50;;;-6.48;84.45
21760;BME280;11041;50.854;20.580;2023-03-01T01:13:48;99972.78;;;-6.50;84.11
21760;BME280;11041;50.854;20.580;2023-03-01T01:16:17;99967.09;;;-6.47;83.71
21760;BME280;11041;50.854;20.580;2023-03-01T01:18:45;99959.72;;;-6.45;83.73
21760;BME280;11041;50.854;20.580;2023-03-01T01:21:17;99969.72;;;-6.39;83.45
21760;BME280;11041;50.854;20.580;2023-03-01T01:23:46;99951.91;;;-6.47;83.08
21760;BME280;11041;50.854;20.580;2023-03-01T01:26:21;99955.25;;;-6.53;82.56
21760;BME280;11041;50.854;20.580;2023-03-01T01:28:48;99954.72;;;-6.48;82.44
21760;BME280;11041;50.854;20.580;2023-03-01T01:31:16;99968.91;;;-6.39;82.40
21760;BME280;11041;50.854;20.580;2023-03-01T01:33:42;99952.72;;;-6.46;82.14
21760;BME280;11041;50.854;20.580;2023-03-01T01:36:10;99957.72;;;-6.43;82.38
21760;BME280;11041;50.854;20.580;2023-03-01T01:38:37;99922.78;;;-6.73;82.35
21760;BME280;11041;50.854;20.580;2023-03-01T01:41:06;99937.44;;;-6.69;82.88
21760;BME280;11041;50.854;20.580;2023-03-01T01:43:46;99945.59;;;-6.62;83.19
21760;BME280;11041;50.854;20.580;2023-03-01T01:46:21;99953.97;;;-6.65;83.76
21760;BME280;11041;50.854;20.580;2023-03-01T01:49:04;99953.22;;;-6.82;83.55
21760;BME280;11041;50.854;20.580;2023-03-01T01:51:39;99928.28;;;-7.14;83.83
21760;BME280;11041;50.854;20.580;2023-03-01T01:54:29;99936.09;;;-7.12;84.45
21760;BME280;11041;50.854;20.580;2023-03-01T01:57:03;99910.44;;;-7.21;84.85
21760;BME280;11041;50.854;20.580;2023-03-01T01:59:34;99951.63;;;-7.08;84.60
21760;BME280;11041;50.854;20.580;2023-03-01T02:02:04;99928.81;;;-7.26;84.19
21760;BME280;11041;50.854;20.580;2023-03-01T02:04:32;99911.94;;;-7.27;84.78
21760;BME280;11041;50.854;20.580;2023-03-01T02:07:22;99935.44;;;-7.06;84.98
21760;BME280;11041;50.854;20.580;2023-03-01T02:09:52;99920.44;;;-7.15;85.17
21760;BME280;11041;50.854;20.580;2023-03-01T02:12:24;99912.94;;;-7.12;84.57
21760;BME280;11041;50.854;20.580;2023-03-01T02:14:51;99932.06;;;-7.00;84.28
21760;BME280;11041;50.854;20.580;2023-03-01T02:17:19;99932.25;;;-7.01;84.03
21760;BME280;11041;50.854;20.580;2023-03-01T02:23:09;99919.38;;;-6.98;83.46
21760;BME280;11041;50.854;20.580;2023-03-01T02:25:55;99905.88;;;-7.04;83.27
21760;BME280;11041;50.854;20.580;2023-03-01T02:28:40;99907.19;;;-7.00;82.76
21760;BME280;11041;50.854;20.580;2023-03-01T02:31:09;99923.38;;;-6.94;82.58
21760;BME280;11041;50.854;20.580;2023-03-01T02:33:56;99921.56;;;-7.10;81.70
21760;BME280;11041;50.854;20.580;2023-03-01T02:36:29;99917.28;;;-7.19;82.59
21760;BME280;11041;50.854;20.580;2023-03-01T02:38:59;99923.25;;;-7.09;83.14
21760;BME280;11041;50.854;20.580;2023-03-01T02:41:32;99934.41;;;-6.97;82.93
21760;BME280;11041;50.854;20.580;2023-03-01T02:44:03;99916.56;;;-7.04;82.64
21760;BME280;11041;50.854;20.580;2023-03-01T02:46:30;99915.25;;;-7.09;82.49
21760;BME280;11041;50.854;20.580;2023-03-01T02:48:58;99926.72;;;-7.00;82.22
21760;BME280;11041;50.854;20.580;2023-03-01T02:54:29;99936.56;;;-7.00;82.06
21760;BME280;11041;50.854;20.580;2023-03-01T02:56:57;99942.44;;;-6.97;82.18
21760;BME280;11041;50.854;20.580;2023-03-01T02:59:32;99945.91;;;-6.96;82.34
21760;BME280;11041;50.854;20.580;2023-03-01T03:02:26;99953.94;;;-6.96;81.78
21760;BME280;11041;50.854;20.580;2023-03-01T03:05:14;99969.34;;;-7.15;81.59
21760;BME280;11041;50.854;20.580;2023-03-01T03:07:44;99953.66;;;-7.18;82.54
21760;BME280;11041;50.854;20.580;2023-03-01T03:10:19;99908.34;;;-7.42;82.36
21760;BME280;11041;50.854;20.580;2023-03-01T03:12:57;99950.66;;;-7.15;82.45
21760;BME280;11041;50.854;20.580;2023-03-01T03:15:26;99942.31;;;-7.12;82.72
21760;BME280;11041;50.854;20.580;2023-03-01T03:17:53;99936.00;;;-7.19;82.20
21760;BME280;11041;50.854;20.580;2023-03-01T03:20:25;99930.84;;;-7.29;81.97
21760;BME280;11041;50.854;20.580;2023-03-01T03:22:55;99958.00;;;-7.17;82.39
21760;BME280;11041;50.854;20.580;2023-03-01T03:25:23;99931.00;;;-7.30;82.19
21760;BME280;11041;50.854;20.580;2023-03-01T03:27:51;99914.84;;;-7.45;82.20
21760;BME280;11041;50.854;20.580;2023-03-01T03:30:27;99949.34;;;-7.27;82.53
21760;BME280;11041;50.854;20.580;2023-03-01T03:32:55;99903.19;;;-7.52;82.44
21760;BME280;11041;50.854;20.580;2023-03-01T03:35:32;99926.00;;;-7.41;82.57
21760;BME280;11041;50.854;20.580;2023-03-01T03:38:04;99897.34;;;-7.56;82.38
21760;BME280;11041;50.854;20.580;2023-03-01T03:40:42;99914.38;;;-7.73;82.18
21760;BME280;11041;50.854;20.580;2023-03-01T03:43:15;99911.41;;;-7.86;82.70
21760;BME280;11041;50.854;20.580;2023-03-01T03:45:45;99914.41;;;-7.98;82.59
21760;BME280;11041;50.854;20.580;2023-03-01T03:48:12;99911.22;;;-8.09;82.97
21760;BME280;11041;50.854;20.580;2023-03-01T03:50:40;99937.75;;;-8.08;82.94
21760;BME280;11041;50.854;20.580;2023-03-01T03:53:11;99932.91;;;-8.12;83.79
21760;BME280;11041;50.854;20.580;2023-03-01T03:55:38;99941.41;;;-8.01;83.83
21760;BME280;11041;50.854;20.580;2023-03-01T03:58:07;99933.06;;;-7.98;83.87
21760;BME280;11041;50.854;20.580;2023-03-01T04:00:43;99942.88;;;-7.82;83.63
21760;BME280;11041;50.854;20.580;2023-03-01T04:03:13;99908.56;;;-7.85;83.39
21760;BME280;11041;50.854;20.580;2023-03-01T04:05:41;99924.41;;;-7.67;83.21
21760;BME280;11041;50.854;20.580;2023-03-01T04:08:09;99931.56;;;-7.59;82.85
21760;BME280;11041;50.854;20.580;2023-03-01T04:10:43;99913.72;;;-7.75;82.64
21760;BME280;11041;50.854;20.580;2023-03-01T04:13:20;99934.03;;;-7.58;82.48
21760;BME280;11041;50.854;20.580;2023-03-01T04:15:53;99921.22;;;-7.71;81.61
21760;BME280;11041;50.854;20.580;2023-03-01T04:18:22;99948.06;;;-7.56;82.13
21760;BME280;11041;50.854;20.580;2023-03-01T04:20:50;99938.03;;;-7.54;82.34
21760;BME280;11041;50.854;20.580;2023-03-01T04:23:20;99924.84;;;-7.55;81.93
21760;BME280;11041;50.854;20.580;2023-03-01T04:25:56;99922.72;;;-7.60;81.84
21760;BME280;11041;50.854;20.580;2023-03-01T04:28:34;99930.19;;;-7.47;81.71
21760;BME280;11041;50.854;20.580;2023-03-01T04:31:06;99917.50;;;-7.53;81.41
21760;BME280;11041;50.854;20.580;2023-03-01T04:33:51;99917.00;;;-7.48;81.33
21760;BME280;11041;50.854;20.580;2023-03-01T04:36:22;99912.50;;;-7.48;81.01
21760;BME280;11041;50.854;20.580;2023-03-01T04:38:49;99927.38;;;-7.54;80.62
21760;BME280;11041;50.854;20.580;2023-03-01T04:41:18;99918.22;;;-7.59;81.24
21760;BME280;11041;50.854;20.580;2023-03-01T04:43:45;99929.88;;;-7.52;80.79
21760;BME280;11041;50.854;20.580;2023-03-01T04:46:16;99874.69;;;-7.84;80.66
21760;BME280;11041;50.854;20.580;2023-03-01T04:48:45;99920.56;;;-7.64;80.34
21760;BME280;11041;50.854;20.580;2023-03-01T04:51:13;99884.38;;;-7.83;81.03
21760;BME280;11041;50.854;20.580;2023-03-01T04:53:40;99907.38;;;-7.82;81.33
21760;BME280;11041;50.854;20.580;2023-03-01T04:56:08;99919.69;;;-7.65;80.80
21760;BME280;11041;50.854;20.580;2023-03-01T04:58:35;99902.38;;;-7.85;80.49
21760;BME280;11041;50.854;20.580;2023-03-01T05:01:15;99927.72;;;-7.73;81.28
21760;BME280;11041;50.854;20.580;2023-03-01T05:03:51;99917.06;;;-7.73;82.06
21760;BME280;11041;50.854;20.580;2023-03-01T05:06:19;99920.88;;;-7.67;82.04
21760;BME280;11041;50.854;20.580;2023-03-01T05:08:46;99906.72;;;-7.76;81.19
21760;BME280;11041;50.854;20.580;2023-03-01T05:11:12;99916.03;;;-7.64;81.43
21760;BME280;11041;50.854;20.580;2023-03-01T05:13:40;99893.38;;;-7.76;81.64
21760;BME280;11041;50.854;20.580;2023-03-01T05:16:08;99893.03;;;-7.73;81.30
21760;BME280;11041;50.854;20.580;2023-03-01T05:18:37;99916.22;;;-7.57;80.70
21760;BME280;11041;50.854;20.580;2023-03-01T05:21:08;99912.69;;;-7.50;80.67
21760;BME280;11041;50.854;20.580;2023-03-01T05:23:35;99924.19;;;-7.49;80.13
21760;BME280;11041;50.854;20.580;2023-03-01T05:26:05;99911.34;;;-7.54;80.43
21760;BME280;11041;50.854;20.580;2023-03-01T05:28:33;99874.69;;;-7.76;80.40
21760;BME280;11041;50.854;20.580;2023-03-01T05:31:00;99909.69;;;-7.55;80.27
21760;BME280;11041;50.854;20.580;2023-03-01T05:33:27;99900.84;;;-7.63;80.25
21760;BME280;11041;50.854;20.580;2023-03-01T05:35:54;99890.69;;;-7.68;80.62
21760;BME280;11041;50.854;20.580;2023-03-01T05:38:21;99894.06;;;-7.74;79.90
21760;BME280;11041;50.854;20.580;2023-03-01T05:40:49;99894.72;;;-7.80;80.72
21760;BME280;11041;50.854;20.580;2023-03-01T05:43:16;99896.03;;;-7.76;80.84
21760;BME280;11041;50.854;20.580;2023-03-01T05:45:44;99888.41;;;-7.96;80.89
21760;BME280;11041;50.854;20.580;2023-03-01T05:48:12;99888.22;;;-7.94;81.66
21760;BME280;11041;50.854;20.580;2023-03-01T05:50:44;99902.56;;;-7.79;81.89
21760;BME280;11041;50.854;20.580;2023-03-01T05:53:20;99881.88;;;-7.85;82.19
21760;BME280;11041;50.854;20.580;2023-03-01T05:55:49;99875.38;;;-7.82;81.68
21760;BME280;11041;50.854;20.580;2023-03-01T05:58:18;99874.50;;;-7.75;81.61
21760;BME280;11041;50.854;20.580;2023-03-01T07:36:46;99893.66;;;-4.57;86.28
21760;BME280;11041;50.854;20.580;2023-03-01T07:39:13;99884.50;;;-4.41;86.20
21760;BME280;11041;50.854;20.580;2023-03-01T07:41:40;99859.28;;;-4.46;86.21
21760;BME280;11041;50.854;20.580;2023-03-01T07:44:06;99898.66;;;-4.11;86.12
21760;BME280;11041;50.854;20.580;2023-03-01T07:46:33;99871.63;;;-4.09;85.67
21760;BME280;11041;50.854;20.580;2023-03-01T07:48:59;99868.59;;;-3.99;85.74
21760;BME280;11041;50.854;20.580;2023-03-01T07:51:26;99888.66;;;-3.74;85.79
21760;BME280;11041;50.854;20.580;2023-03-01T07:53:52;99853.31;;;-3.77;85.10
21760;BME280;11041;50.854;20.580;2023-03-01T07:56:19;99886.00;;;-3.46;85.35
21760;BME280;11041;50.854;20.580;2023-03-01T07:58:47;99875.31;;;-3.32;85.21
21760;BME280;11041;50.854;20.580;2023-03-01T08:01:17;99888.06;;;-3.06;85.09
21760;BME280;11041;50.854;20.580;2023-03-01T08:03:45;99866.38;;;-3.05;84.91
21760;BME280;11041;50.854;20.580;2023-03-01T08:06:15;99856.13;;;-2.88;85.09
21760;BME280;11041;50.854;20.580;2023-03-01T08:08:43;99881.69;;;-2.57;84.55
21760;BME280;11041;50.854;20.580;2023-03-01T08:11:13;99836.75;;;-2.63;83.79
21760;BME280;11041;50.854;20.580;2023-03-01T08:13:40;99876.00;;;-2.21;80.71
21760;BME280;11041;50.854;20.580;2023-03-01T08:16:11;99864.81;;;-2.11;79.55
21760;BME280;11041;50.854;20.580;2023-03-01T08:18:39;99851.75;;;-2.01;76.20
21760;BME280;11041;50.854;20.580;2023-03-01T08:21:09;99854.88;;;-1.90;75.42
21760;BME280;11041;50.854;20.580;2023-03-01T08:23:36;99849.91;;;-1.87;75.67
21760;BME280;11041;50.854;20.580;2023-03-01T08:26:20;99889.91;;;-1.57;75.02
21760;BME280;11041;50.854;20.580;2023-03-01T08:28:49;99885.53;;;-1.52;74.38
21760;BME280;11041;50.854;20.580;2023-03-01T08:31:19;99855.50;;;-1.62;75.06
21760;BME280;11041;50.854;20.580;2023-03-01T08:33:49;99877.63;;;-1.26;72.45
21760;BME280;11041;50.854;20.580;2023-03-01T08:36:26;99877.59;;;-1.13;72.72
21760;BME280;11041;50.854;20.580;2023-03-01T08:38:53;99886.13;;;-1.10;74.70
21760;BME280;11041;50.854;20.580;2023-03-01T08:41:20;99889.00;;;-1.04;73.83
21760;BME280;11041;50.854;20.580;2023-03-01T08:43:47;99867.66;;;-1.19;71.50
21760;BME280;11041;50.854;20.580;2023-03-01T08:46:14;99869.72;;;-1.15;71.18
21760;BME280;11041;50.854;20.580;2023-03-01T08:48:41;99877.16;;;-0.97;69.96
21760;BME280;11041;50.854;20.580;2023-03-01T08:51:18;99867.78;;;-0.94;70.15
21760;BME280;11041;50.854;20.580;2023-03-01T08:53:46;99866.72;;;-0.80;69.34
21760;BME280;11041;50.854;20.580;2023-03-01T08:56:13;99845.81;;;-0.91;70.07
21760;BME280;11041;50.854;20.580;2023-03-01T08:58:47;99860.47;;;-0.74;69.51
21760;BME280;11041;50.854;20.580;2023-03-01T09:01:17;99852.81;;;-0.77;69.46
21760;BME280;11041;50.854;20.580;2023-03-01T09:03:45;99873.69;;;-0.59;70.16
21760;BME280;11041;50.854;20.580;2023-03-01T09:06:13;99876.13;;;-0.51;69.09
21760;BME280;11041;50.854;20.580;2023-03-01T09:08:47;99859.53;;;-0.54;68.64
21760;BME280;11041;50.854;20.580;2023-03-01T09:11:18;99852.69;;;-0.50;69.58
21760;BME280;11041;50.854;20.580;2023-03-01T09:13:47;99866.50;;;-0.33;67.42
21760;BME280;11041;50.854;20.580;2023-03-01T09:16:17;99858.13;;;-0.25;67.60
21760;BME280;11041;50.854;20.580;2023-03-01T09:18:49;99848.75;;;-0.23;67.32
21760;BME280;11041;50.854;20.580;2023-03-01T09:21:18;99856.63;;;-0.14;67.41
21760;BME280;11041;50.854;20.580;2023-03-01T09:23:47;99863.41;;;-0.05;66.25
21760;BME280;11041;50.854;20.580;2023-03-01T09:26:22;99842.19;;;-0.02;67.17
21760;BME280;11041;50.854;20.580;2023-03-01T09:28:53;99857.91;;;0.08;64.17
21760;BME280;11041;50.854;20.580;2023-03-01T09:31:23;99859.13;;;0.12;65.66
21760;BME280;11041;50.854;20.580;2023-03-01T09:33:53;99847.47;;;0.12;61.25
21760;BME280;11041;50.854;20.580;2023-03-01T09:36:23;99852.78;;;0.25;62.33
21760;BME280;11041;50.854;20.580;2023-03-01T09:38:52;99840.88;;;0.33;63.49
21760;BME280;11041;50.854;20.580;2023-03-01T09:41:45;99849.19;;;0.56;64.22
21760;BME280;11041;50.854;20.580;2023-03-01T09:47:29;99820.91;;;0.52;63.84
21760;BME280;11041;50.854;20.580;2023-03-01T09:50:21;99843.47;;;0.64;63.96
21760;BME280;11041;50.854;20.580;2023-03-01T09:53:15;99840.03;;;0.76;63.12
21760;BME280;11041;50.854;20.580;2023-03-01T09:56:20;99839.91;;;0.89;63.54
21760;BME280;11041;50.854;20.580;2023-03-01T10:01:59;99837.63;;;0.86;62.23
21760;BME280;11041;50.854;20.580;2023-03-01T10:04:48;99827.56;;;0.93;62.37
21760;BME280;11041;50.854;20.580;2023-03-01T10:10:12;99830.63;;;1.15;61.60
21760;BME280;11041;50.854;20.580;2023-03-01T10:12:44;99832.66;;;1.20;61.48
21760;BME280;11041;50.854;20.580;2023-03-01T10:15:22;99824.41;;;1.15;61.31
21760;BME280;11041;50.854;20.580;2023-03-01T10:17:57;99807.38;;;1.26;60.01
21760;BME280;11041;50.854;20.580;2023-03-01T10:20:45;99828.66;;;1.41;60.37
21760;BME280;11041;50.854;20.580;2023-03-01T10:23:13;99804.75;;;1.38;61.35
21760;BME280;11041;50.854;20.580;2023-03-01T10:28:35;99818.25;;;1.68;58.23
21760;BME280;11041;50.854;20.580;2023-03-01T10:31:19;99807.91;;;1.65;57.67
21760;BME280;11041;50.854;20.580;2023-03-01T10:33:46;99795.53;;;1.69;59.49
21760;BME280;11041;50.854;20.580;2023-03-01T10:36:14;99797.13;;;1.88;58.68
21760;BME280;11041;50.854;20.580;2023-03-01T10:38:56;99810.34;;;2.08;59.20
21760;BME280;11041;50.854;20.580;2023-03-01T10:41:27;99817.31;;;2.28;57.49
21760;BME280;11041;50.854;20.580;2023-03-01T10:43:57;99821.34;;;2.37;57.68
21760;BME280;11041;50.854;20.580;2023-03-01T10:46:37;99795.41;;;2.29;57.67
21760;BME280;11041;50.854;20.580;2023-03-01T10:49:21;99779.25;;;2.34;57.46
21760;BME280;11041;50.854;20.580;2023-03-01T10:51:53;99799.66;;;2.49;57.88
21760;BME280;11041;50.854;20.580;2023-03-01T10:54:32;99801.53;;;2.48;54.74
21760;BME280;11041;50.854;20.580;2023-03-01T10:57:04;99777.72;;;2.39;55.59
21760;BME280;11041;50.854;20.580;2023-03-01T10:59:35;99789.50;;;2.56;55.75
21760;BME280;11041;50.854;20.580;2023-03-01T11:02:29;99793.50;;;2.65;55.94
21760;BME280;11041;50.854;20.580;2023-03-01T11:05:00;99795.25;;;2.71;54.61
21760;BME280;11041;50.854;20.580;2023-03-01T11:07:28;99765.19;;;2.61;53.64
21760;BME280;11041;50.854;20.580;2023-03-01T11:09:55;99780.53;;;2.67;53.91
21760;BME280;11041;50.854;20.580;2023-03-01T11:12:22;99760.34;;;2.63;54.62
21760;BME280;11041;50.854;20.580;2023-03-01T11:14:53;99790.59;;;2.95;54.92
21760;BME280;11041;50.854;20.580;2023-03-01T11:17:31;99758.50;;;3.04;53.64
21760;BME280;11041;50.854;20.580;2023-03-01T11:20:19;99780.66;;;3.13;51.45
21760;BME280;11041;50.854;20.580;2023-03-01T11:22:53;99763.09;;;3.04;52.44
21760;BME280;11041;50.854;20.580;2023-03-01T11:25:30;99745.41;;;3.01;52.48
21760;BME280;11041;50.854;20.580;2023-03-01T11:28:03;99736.28;;;3.07;52.29
21760;BME280;11041;50.854;20.580;2023-03-01T11:31:18;99775.38;;;3.35;52.83
21760;BME280;11041;50.854;20.580;2023-03-01T11:33:48;99766.63;;;3.61;52.02
21760;BME280;11041;50.854;20.580;2023-03-01T11:36:40;99732.19;;;3.50;50.63
21760;BME280;11041;50.854;20.580;2023-03-01T11:39:54;99758.72;;;3.77;50.10
21760;BME280;11041;50.854;20.580;2023-03-01T11:42:46;99753.97;;;3.84;47.70
21760;BME280;11041;50.854;20.580;2023-03-01T11:45:14;99719.50;;;3.73;46.10
21760;BME280;11041;50.854;20.580;2023-03-01T11:50:48;99729.19;;;3.97;42.64
21760;BME280;11041;50.854;20.580;2023-03-01T11:54:25;99729.50;;;4.01;46.42
21760;BME280;11041;50.854;20.580;2023-03-01T11:56:40;99723.78;;;4.19;46.68
21760;BME280;11041;50.854;20.580;2023-03-01T12:08:23;99704.44;;;4.77;44.72
21760;BME280;11041;50.854;20.580;2023-03-01T12:35:19;99686.75;;;5.01;41.06
21760;BME280;11041;50.854;20.580;2023-03-01T12:47:47;99675.94;;;4.84;41.51
21760;BME280;11041;50.854;20.580;2023-03-01T12:50:28;99670.25;;;4.86;41.82
21760;BME280;11041;50.854;20.580;2023-03-01T12:52:59;99657.50;;;4.91;41.28
21760;BME280;11041;50.854;20.580;2023-03-01T12:55:39;99653.94;;;5.18;41.31
21760;BME280;11041;50.854;20.580;2023-03-01T13:07:28;99629.59;;;5.39;40.86
21760;BME280;11041;50.854;20.580;2023-03-01T13:10:31;99674.38;;;5.75;39.05
21760;BME280;11041;50.854;20.580;2023-03-01T13:13:20;99659.81;;;5.64;39.77
21760;BME280;11041;50.854;20.580;2023-03-01T13:15:49;99659.16;;;5.52;38.70
21760;BME280;11041;50.854;20.580;2023-03-01T13:20:57;99647.41;;;5.46;40.32
21760;BME280;11041;50.854;20.580;2023-03-01T13:23:30;99637.84;;;5.44;39.90
21760;BME280;11041;50.854;20.580;2023-03-01T13:28:50;99662.84;;;5.68;40.36
21760;BME280;11041;50.854;20.580;2023-03-01T13:33:54;99657.00;;;5.54;38.10
21760;BME280;11041;50.854;20.580;2023-03-01T13:36:49;99639.75;;;5.16;37.92
21760;BME280;11041;50.854;20.580;2023-03-01T13:39:31;99640.25;;;5.08;38.46
21760;BME280;11041;50.854;20.580;2023-03-01T13:42:32;99678.31;;;5.30;39.42
21760;BME280;11041;50.854;20.580;2023-03-01T13:45:00;99649.94;;;5.26;38.52
21760;BME280;11041;50.854;20.580;2023-03-01T13:47:29;99637.91;;;5.22;38.99
21760;BME280;11041;50.854;20.580;2023-03-01T13:50:03;99653.06;;;5.40;38.31
21760;BME280;11041;50.854;20.580;2023-03-01T13:57:46;99625.69;;;4.97;38.21
21760;BME280;11041;50.854;20.580;2023-03-01T14:00:38;99622.09;;;4.91;38.66
21760;BME280;11041;50.854;20.580;2023-03-01T14:03:15;99610.06;;;4.87;38.99
21760;BME280;11041;50.854;20.580;2023-03-01T14:06:04;99640.81;;;5.10;38.40
21760;BME280;11041;50.854;20.580;2023-03-01T14:08:36;99603.72;;;5.09;38.58
21760;BME280;11041;50.854;20.580;2023-03-01T14:19:48;99591.34;;;4.96;39.11
21760;BME280;11041;50.854;20.580;2023-03-01T14:22:27;99620.16;;;5.19;37.54
21760;BME280;11041;50.854;20.580;2023-03-01T14:25:01;99617.16;;;5.16;37.64
21760;BME280;11041;50.854;20.580;2023-03-01T14:27:38;99599.09;;;5.09;39.25
21760;BME280;11041;50.854;20.580;2023-03-01T14:30:17;99593.75;;;4.93;37.96
21760;BME280;11041;50.854;20.580;2023-03-01T14:33:01;99611.91;;;5.09;38.24
21760;BME280;11041;50.854;20.580;2023-03-01T14:35:35;99612.50;;;5.16;37.85
21760;BME280;11041;50.854;20.580;2023-03-01T14:38:03;99619.63;;;5.17;38.60
21760;BME280;11041;50.854;20.580;2023-03-01T14:40:36;99610.88;;;5.15;38.00
21760;BME280;11041;50.854;20.580;2023-03-01T14:43:11;99617.75;;;5.23;37.82
21760;BME280;11041;50.854;20.580;2023-03-01T14:45:48;99616.06;;;5.17;38.14
21760;BME280;11041;50.854;20.580;2023-03-01T14:48:16;99606.81;;;5.18;38.00
21760;BME280;11041;50.854;20.580;2023-03-01T14:50:45;99606.44;;;5.09;37.89
21760;BME280;11041;50.854;20.580;2023-03-01T14:53:25;99599.72;;;4.89;38.04
21760;BME280;11041;50.854;20.580;2023-03-01T14:55:59;99592.19;;;4.69;37.85
21760;BME280;11041;50.854;20.580;2023-03-01T14:58:33;99614.63;;;4.82;37.76
21760;BME280;11041;50.854;20.580;2023-03-01T15:01:04;99591.84;;;4.66;38.49
21760;BME280;11041;50.854;20.580;2023-03-01T15:03:37;99608.38;;;4.81;38.94
21760;BME280;11041;50.854;20.580;2023-03-01T15:06:08;99581.16;;;4.59;38.31
21760;BME280;11041;50.854;20.580;2023-03-01T15:08:37;99582.56;;;4.62;38.24
21760;BME280;11041;50.854;20.580;2023-03-01T15:13:41;99592.91;;;4.60;38.83
21760;BME280;11041;50.854;20.580;2023-03-01T15:16:24;99586.69;;;4.42;38.95
21760;BME280;11041;50.854;20.580;2023-03-01T15:18:55;99598.34;;;4.38;39.28
21760;BME280;11041;50.854;20.580;2023-03-01T15:21:31;99567.28;;;4.34;38.58
21760;BME280;11041;50.854;20.580;2023-03-01T15:24:23;99584.75;;;4.38;40.08
21760;BME280;11041;50.854;20.580;2023-03-01T15:26:58;99574.25;;;4.24;40.81
21760;BME280;11041;50.854;20.580;2023-03-01T15:29:30;99586.69;;;4.20;40.26
21760;BME280;11041;50.854;20.580;2023-03-01T15:32:06;99557.88;;;3.97;41.54
21760;BME280;11041;50.854;20.580;2023-03-01T15:34:38;99567.53;;;3.88;42.31
21760;BME280;11041;50.854;20.580;2023-03-01T15:37:38;99589.34;;;3.93;43.03
21760;BME280;11041;50.854;20.580;2023-03-01T15:40:27;99556.94;;;3.70;43.37
21760;BME280;11041;50.854;20.580;2023-03-01T15:43:06;99580.41;;;3.76;44.11
21760;BME280;11041;50.854;20.580;2023-03-01T15:45:33;99581.91;;;3.67;44.00
21760;BME280;11041;50.854;20.580;2023-03-01T15:48:04;99557.88;;;3.41;45.30
21760;BME280;11041;50.854;20.580;2023-03-01T15:50:36;99590.91;;;3.33;46.74
21760;BME280;11041;50.854;20.580;2023-03-01T15:53:12;99589.50;;;3.31;47.91
21760;BME280;11041;50.854;20.580;2023-03-01T15:55:42;99575.84;;;3.09;48.76
21760;BME280;11041;50.854;20.580;2023-03-01T15:58:25;99586.94;;;3.07;49.70
21760;BME280;11041;50.854;20.580;2023-03-01T16:13:49;99563.53;;;2.03;53.90
21760;BME280;11041;50.854;20.580;2023-03-01T16:16:16;99560.97;;;1.85;53.83
21760;BME280;11041;50.854;20.580;2023-03-01T16:18:45;99555.94;;;1.65;54.48
21760;BME280;11041;50.854;20.580;2023-03-01T16:21:24;99593.16;;;1.69;54.47
21760;BME280;11041;50.854;20.580;2023-03-01T16:23:52;99570.19;;;1.48;54.85
21760;BME280;11041;50.854;20.580;2023-03-01T16:26:19;99583.13;;;1.46;54.85
21760;BME280;11041;50.854;20.580;2023-03-01T16:28:46;99577.72;;;1.23;55.36
21760;BME280;11041;50.854;20.580;2023-03-01T16:31:19;99569.34;;;1.13;55.09
21760;BME280;11041;50.854;20.580;2023-03-01T16:34:38;99551.88;;;0.85;55.68
21760;BME280;11041;50.854;20.580;2023-03-01T16:37:16;99519.41;;;0.43;55.60
21760;BME280;11041;50.854;20.580;2023-03-01T16:39:45;99538.81;;;0.40;55.74
21760;BME280;11041;50.854;20.580;2023-03-01T16:42:13;99581.22;;;0.58;56.30
21760;BME280;11041;50.854;20.580;2023-03-01T16:44:39;99534.63;;;0.26;56.85
21760;BME280;11041;50.854;20.580;2023-03-01T16:47:18;99535.13;;;0.04;57.17
21760;BME280;11041;50.854;20.580;2023-03-01T16:49:54;99598.97;;;0.35;57.76
21760;BME280;11041;50.854;20.580;2023-03-01T16:52:38;99562.22;;;0.16;57.82
21760;BME280;11041;50.854;20.580;2023-03-01T16:55:06;99532.66;;;-0.16;57.68
21760;BME280;11041;50.854;20.580;2023-03-01T16:57:37;99594.50;;;0.11;58.18